createdAt,value
2022-08-19T00:01:30.596Z,5.40
2022-08-19T00:04:04.622Z,5.10
2022-08-19T00:06:31.549Z,5.35
2022-08-19T00:09:00.981Z,5.28
2022-08-19T00:11:28.516Z,5.18
2022-08-19T00:13:57.422Z,5.43
2022-08-19T00:16:26.384Z,4.80
2022-08-19T00:18:54.376Z,4.72
2022-08-19T00:21:20.922Z,5.78
2022-08-19T00:23:47.371Z,5.50
2022-08-19T00:26:14.663Z,5.18
2022-08-19T00:28:41.097Z,5.65
2022-08-19T00:31:09.785Z,4.93
2022-08-19T00:33:36.758Z,5.80
2022-08-19T00:36:07.750Z,5.30
2022-08-19T00:38:37.766Z,5.55
2022-08-19T00:41:08.308Z,6.13
2022-08-19T00:43:34.888Z,5.82
2022-08-19T00:46:05.686Z,6.00
2022-08-19T00:48:33.127Z,5.50
2022-08-19T00:50:59.857Z,6.72
2022-08-19T00:53:29.498Z,6.70
2022-08-19T00:55:58.821Z,6.88
2022-08-19T00:58:31.344Z,5.80
2022-08-19T01:00:57.851Z,6.73
2022-08-19T01:03:24.900Z,5.97
2022-08-19T01:05:53.248Z,5.72
2022-08-19T01:08:20.488Z,5.70
2022-08-19T01:10:56.320Z,5.97
2022-08-19T01:13:27.675Z,6.28
2022-08-19T01:16:09.768Z,6.53
2022-08-19T01:18:40.129Z,6.32
2022-08-19T01:21:16.223Z,5.90
2022-08-19T01:23:44.598Z,6.35
2022-08-19T01:26:17.114Z,5.97
2022-08-19T01:28:46.860Z,6.72
2022-08-19T01:31:26.681Z,6.50
2022-08-19T01:33:56.463Z,6.70
2022-08-19T01:36:31.310Z,6.55
2022-08-19T01:39:00.296Z,7.32
2022-08-19T01:41:27.362Z,6.90
2022-08-19T01:44:03.225Z,6.13
2022-08-19T01:46:42.689Z,6.28
2022-08-19T01:49:09.273Z,7.80
2022-08-19T01:51:40.044Z,7.70
2022-08-19T01:54:08.448Z,7.28
2022-08-19T01:56:34.884Z,7.63
2022-08-19T01:59:05.599Z,8.15
2022-08-19T02:01:35.578Z,6.75
2022-08-19T02:04:02.406Z,7.07
2022-08-19T02:06:29.391Z,7.25
2022-08-19T02:08:57.351Z,7.28
2022-08-19T02:11:32.472Z,7.50
2022-08-19T02:13:59.774Z,7.75
2022-08-19T02:16:26.439Z,7.18
2022-08-19T02:18:52.887Z,6.95
2022-08-19T02:21:21.323Z,6.95
2022-08-19T02:23:48.755Z,7.50
2022-08-19T02:26:15.955Z,6.90
2022-08-19T02:28:43.464Z,6.80
2022-08-19T02:31:15.817Z,6.75
2022-08-19T02:33:42.715Z,7.55
2022-08-19T02:36:11.675Z,8.05
2022-08-19T02:38:38.944Z,8.88
2022-08-19T02:41:11.950Z,10.20
2022-08-19T02:43:39.523Z,10.38
2022-08-19T02:46:23.122Z,11.50
2022-08-19T02:48:51.075Z,10.52
2022-08-19T02:51:30.441Z,11.48
2022-08-19T02:53:57.547Z,11.77
2022-08-19T02:56:28.280Z,11.18
2022-08-19T02:58:56.182Z,11.82
2022-08-19T03:01:29.346Z,10.95
2022-08-19T03:03:57.420Z,10.90
2022-08-19T03:06:24.406Z,10.60
2022-08-19T03:08:51.375Z,10.85
2022-08-19T03:11:21.581Z,10.32
2022-08-19T03:13:49.941Z,10.50
2022-08-19T03:16:17.115Z,11.25
2022-08-19T03:18:43.917Z,11.63
2022-08-19T03:21:15.396Z,10.80
2022-08-19T03:23:41.816Z,10.45
2022-08-19T03:26:16.800Z,9.77
2022-08-19T03:28:51.553Z,9.30
2022-08-19T03:31:45.664Z,9.05
2022-08-19T03:34:16.300Z,10.18
2022-08-19T03:36:43.042Z,9.70
2022-08-19T03:39:11.107Z,10.48
2022-08-19T03:41:44.977Z,10.50
2022-08-19T03:44:19.586Z,10.73
2022-08-19T03:47:04.908Z,10.85
2022-08-19T03:49:34.410Z,11.90
2022-08-19T03:52:05.849Z,11.98
2022-08-19T03:54:32.305Z,12.80
2022-08-19T03:56:58.824Z,12.32
2022-08-19T03:59:28.876Z,13.27
2022-08-19T04:01:58.034Z,13.70
2022-08-19T04:04:25.021Z,13.82
2022-08-19T04:06:56.309Z,14.73
2022-08-19T04:09:22.760Z,16.38
2022-08-19T04:11:54.631Z,16.13
2022-08-19T04:14:25.101Z,15.07
2022-08-19T04:16:52.680Z,15.27
2022-08-19T04:19:20.621Z,17.25
2022-08-19T04:21:49.673Z,18.10
2022-08-19T04:24:16.654Z,17.15
2022-08-19T04:26:44.168Z,16.90
2022-08-19T04:29:14.517Z,17.70
2022-08-19T04:31:41.902Z,17.92
2022-08-19T04:34:11.785Z,18.40
2022-08-19T04:36:40.629Z,19.02
2022-08-19T04:39:11.375Z,19.75
2022-08-19T04:41:56.614Z,19.15
2022-08-19T04:44:23.448Z,21.90
2022-08-19T04:46:52.110Z,22.85
2022-08-19T04:49:23.730Z,23.63
2022-08-19T04:51:55.098Z,23.42
2022-08-19T04:54:37.687Z,28.40
2022-08-19T04:57:09.316Z,23.05
2022-08-19T04:59:37.117Z,24.83
2022-08-19T05:02:05.052Z,24.73
2022-08-19T05:04:32.977Z,24.08
2022-08-19T05:07:01.658Z,26.83
2022-08-19T05:09:36.131Z,25.70
2022-08-19T05:12:17.163Z,26.20
2022-08-19T05:14:44.343Z,26.52
2022-08-19T05:17:27.057Z,26.73
2022-08-19T05:20:14.124Z,25.98
2022-08-19T05:22:41.689Z,30.25
2022-08-19T05:25:13.707Z,27.55
2022-08-19T05:27:42.368Z,29.23
2022-08-19T05:30:10.788Z,27.85
2022-08-19T05:32:37.504Z,25.27
2022-08-19T05:35:05.065Z,25.52
2022-08-19T05:37:31.466Z,27.10
2022-08-19T05:39:57.935Z,23.83
2022-08-19T05:42:24.366Z,25.30
2022-08-19T05:44:51.851Z,25.60
2022-08-19T05:47:20.527Z,26.52
2022-08-19T05:49:47.543Z,28.38
2022-08-19T05:52:19.319Z,28.95
2022-08-19T05:54:51.513Z,27.73
2022-08-19T05:57:19.396Z,28.60
2022-08-19T05:59:53.059Z,29.23
2022-08-19T06:02:28.328Z,29.40
2022-08-19T06:04:54.869Z,31.10
2022-08-19T06:07:21.409Z,32.42
2022-08-19T06:09:59.806Z,32.42
2022-08-19T06:12:33.901Z,34.60
2022-08-19T06:15:02.250Z,35.15
2022-08-19T06:17:32.575Z,35.22
2022-08-19T06:19:59.884Z,34.00
2022-08-19T06:22:27.304Z,34.08
2022-08-19T06:24:54.776Z,35.55
2022-08-19T06:27:22.112Z,34.95
2022-08-19T06:29:48.663Z,35.75
2022-08-19T06:32:17.257Z,34.28
2022-08-19T06:34:44.027Z,35.08
2022-08-19T06:37:12.433Z,34.92
2022-08-19T06:39:41.419Z,34.70
2022-08-19T06:42:11.092Z,34.40
2022-08-19T06:44:42.668Z,36.58
2022-08-19T06:47:14.678Z,38.72
2022-08-19T06:49:42.342Z,38.42
2022-08-19T06:52:13.791Z,39.60
2022-08-19T06:54:56.058Z,37.88
2022-08-19T06:57:24.736Z,38.20
2022-08-19T06:59:51.363Z,39.10
2022-08-19T07:04:45.251Z,36.75
2022-08-19T07:07:20.934Z,34.25
2022-08-19T07:09:58.238Z,37.13
2022-08-19T07:12:35.517Z,36.72
2022-08-19T07:15:04.186Z,33.10
2022-08-19T07:17:31.045Z,35.42
2022-08-19T07:19:57.718Z,31.85
2022-08-19T07:22:32.562Z,31.55
2022-08-19T07:24:59.085Z,32.30
2022-08-19T07:27:25.611Z,34.60
2022-08-19T07:29:56.270Z,31.27
2022-08-19T07:32:28.807Z,35.80
2022-08-19T07:34:56.932Z,30.45
2022-08-19T07:37:32.399Z,26.27
2022-08-19T07:39:59.745Z,22.80
2022-08-19T07:42:26.456Z,24.02
2022-08-19T07:44:52.901Z,23.75
2022-08-19T07:47:48.936Z,23.02
2022-08-19T07:50:09.724Z,21.00
2022-08-19T07:52:39.437Z,20.67
2022-08-19T07:55:08.163Z,21.10
2022-08-19T07:57:54.769Z,20.65
2022-08-19T08:00:23.809Z,17.60
2022-08-19T08:02:52.202Z,20.63
2022-08-19T08:05:43.415Z,17.42
2022-08-19T08:08:44.336Z,23.20
2022-08-19T08:11:16.203Z,22.65
2022-08-19T08:13:44.292Z,19.60
2022-08-19T08:16:13.942Z,19.42
2022-08-19T08:18:43.094Z,24.77
2022-08-19T08:21:09.826Z,22.95
2022-08-19T08:23:36.796Z,24.38
2022-08-19T08:26:06.364Z,21.58
2022-08-19T08:28:32.976Z,22.02
2022-08-19T08:31:00.061Z,23.80
2022-08-19T08:33:33.217Z,24.92
2022-08-19T08:36:08.953Z,25.17
2022-08-19T08:38:41.216Z,23.75
2022-08-19T08:41:32.202Z,18.52
2022-08-19T08:43:59.009Z,21.83
2022-08-19T08:46:35.227Z,22.27
2022-08-19T08:49:21.278Z,20.35
2022-08-19T08:51:59.994Z,19.52
2022-08-19T08:54:36.219Z,21.52
2022-08-19T08:57:08.231Z,22.83
2022-08-19T08:59:40.110Z,20.77
2022-08-19T09:02:06.552Z,18.30
2022-08-19T09:04:39.844Z,16.95
2022-08-19T09:07:37.416Z,15.45
2022-08-19T09:10:11.348Z,15.85
2022-08-19T09:13:03.607Z,18.83
2022-08-19T09:15:41.933Z,21.45
2022-08-19T09:18:09.890Z,23.77
2022-08-19T09:20:41.875Z,17.98
2022-08-19T09:23:11.659Z,15.88
2022-08-19T09:25:38.458Z,21.30
2022-08-19T09:28:05.648Z,23.00
2022-08-19T09:30:42.383Z,20.23
2022-08-19T09:33:09.511Z,18.55
2022-08-19T09:35:49.483Z,15.02
2022-08-19T09:38:16.834Z,14.73
2022-08-19T09:40:43.269Z,17.05
2022-08-19T09:43:13.424Z,15.48
2022-08-19T09:45:40.263Z,19.88
2022-08-19T09:48:07.087Z,16.58
2022-08-19T09:50:35.880Z,15.05
2022-08-19T09:53:02.328Z,16.97
2022-08-19T09:55:31.631Z,17.70
2022-08-19T09:58:00.804Z,16.33
2022-08-19T10:00:27.705Z,17.67
2022-08-19T10:02:54.147Z,16.85
2022-08-19T10:05:39.153Z,15.25
2022-08-19T10:08:13.602Z,12.15
2022-08-19T10:10:47.051Z,16.45
2022-08-19T10:13:16.824Z,13.70
2022-08-19T10:15:47.454Z,11.75
2022-08-19T10:18:15.376Z,15.90
2022-08-19T10:20:42.716Z,13.63
2022-08-19T10:23:10.246Z,13.43
2022-08-19T10:25:36.934Z,11.50
2022-08-19T10:28:07.009Z,10.32
2022-08-19T10:30:37.762Z,10.00
2022-08-19T10:33:10.839Z,8.80
2022-08-19T10:35:56.332Z,10.38
2022-08-19T10:38:31.295Z,10.05
2022-08-19T10:40:59.091Z,10.23
2022-08-19T10:43:25.854Z,8.75
2022-08-19T10:45:57.633Z,8.10
2022-08-19T10:48:24.066Z,9.07
2022-08-19T10:51:08.852Z,12.05
2022-08-19T10:53:35.448Z,10.88
2022-08-19T10:56:20.940Z,8.15
2022-08-19T10:58:47.532Z,10.60
2022-08-19T11:01:14.017Z,9.88
2022-08-19T11:03:40.568Z,9.60
2022-08-19T11:06:09.013Z,7.95
2022-08-19T11:08:38.387Z,9.82
2022-08-19T11:11:07.117Z,8.52
2022-08-19T11:13:37.641Z,8.63
2022-08-19T11:16:07.921Z,11.60
2022-08-19T11:18:37.073Z,7.70
2022-08-19T11:21:20.252Z,7.90
2022-08-19T11:23:49.682Z,9.18
2022-08-19T11:26:18.616Z,8.82
2022-08-19T11:28:45.771Z,6.82
2022-08-19T11:31:17.525Z,6.07
2022-08-19T11:33:47.564Z,6.90
2022-08-19T11:36:15.022Z,4.95
2022-08-19T11:38:41.768Z,6.50
2022-08-19T11:41:09.253Z,6.13
2022-08-19T11:43:37.684Z,5.30
2022-08-19T11:46:07.764Z,5.80
2022-08-19T11:48:35.399Z,6.10
2022-08-19T11:51:07.073Z,6.43
2022-08-19T11:53:35.045Z,5.10
2022-08-19T11:56:01.856Z,5.45
2022-08-19T11:58:28.356Z,5.32
2022-08-19T12:00:54.752Z,4.80
2022-08-19T12:03:21.868Z,4.35
2022-08-19T12:05:48.573Z,4.10
2022-08-19T12:08:16.429Z,4.40
2022-08-19T12:10:45.222Z,6.28
2022-08-19T12:13:19.235Z,3.20
2022-08-19T12:15:47.767Z,3.42
2022-08-19T12:18:14.833Z,3.45
2022-08-19T12:20:43.919Z,3.78
2022-08-19T12:23:11.068Z,3.20
2022-08-19T12:25:44.581Z,2.85
2022-08-19T12:28:10.996Z,2.60
2022-08-19T12:30:38.909Z,2.83
2022-08-19T12:33:05.320Z,2.85
2022-08-19T12:35:31.784Z,2.70
2022-08-19T12:37:59.438Z,2.97
2022-08-19T12:40:26.752Z,2.53
2022-08-19T12:42:54.409Z,2.50
2022-08-19T12:45:20.890Z,2.60
2022-08-19T12:47:47.755Z,2.83
2022-08-19T12:50:14.400Z,2.67
2022-08-19T12:52:43.135Z,2.90
2022-08-19T12:55:10.423Z,3.60
2022-08-19T12:57:36.866Z,3.25
2022-08-19T13:00:13.375Z,2.90
2022-08-19T13:02:41.738Z,3.10
2022-08-19T13:05:12.061Z,2.42
2022-08-19T13:07:40.195Z,2.85
2022-08-19T13:10:12.691Z,3.05
2022-08-19T13:15:11.240Z,2.72
2022-08-19T13:17:38.988Z,2.65
2022-08-19T13:20:08.874Z,3.67
2022-08-19T13:22:36.862Z,3.15
2022-08-19T13:25:04.938Z,3.40
2022-08-19T13:27:31.414Z,3.65
2022-08-19T13:30:16.560Z,4.10
2022-08-19T13:33:01.648Z,3.80
2022-08-19T13:35:28.116Z,3.42
2022-08-19T13:37:54.804Z,3.60
2022-08-19T13:40:24.881Z,3.90
2022-08-19T13:42:53.884Z,3.75
2022-08-19T13:45:25.108Z,4.00
2022-08-19T13:47:58.663Z,3.92
2022-08-19T13:50:32.101Z,3.72
2022-08-19T13:55:26.033Z,3.30
2022-08-19T13:57:58.268Z,3.58
2022-08-19T14:00:27.479Z,4.20
2022-08-19T14:02:56.709Z,4.75
2022-08-19T14:05:23.329Z,7.07
2022-08-19T14:07:49.898Z,7.00
2022-08-19T14:10:17.800Z,5.35
2022-08-19T14:12:45.144Z,8.18
2022-08-19T14:15:13.092Z,4.80
2022-08-19T14:17:40.781Z,3.63
2022-08-19T14:20:10.846Z,3.45
2022-08-19T14:22:40.300Z,3.53
2022-08-19T14:25:09.506Z,3.67
2022-08-19T14:27:37.924Z,2.92
2022-08-19T14:30:06.296Z,3.20
2022-08-19T14:32:32.798Z,2.65
2022-08-19T14:34:59.392Z,2.85
2022-08-19T14:37:26.152Z,2.90
2022-08-19T14:39:55.013Z,3.00
2022-08-19T14:42:21.515Z,2.90
2022-08-19T14:44:47.915Z,3.45
2022-08-19T14:47:14.330Z,4.25
2022-08-19T14:49:41.263Z,4.18
2022-08-19T14:52:10.577Z,4.82
2022-08-19T14:54:36.981Z,4.55
2022-08-19T14:57:03.641Z,3.92
2022-08-19T14:59:30.069Z,3.55
2022-08-19T15:01:56.531Z,3.85
2022-08-19T15:04:22.979Z,3.70
2022-08-19T15:06:51.599Z,3.75
2022-08-19T15:09:18.173Z,3.65
2022-08-19T15:11:44.667Z,4.25
2022-08-19T15:14:11.217Z,4.68
2022-08-19T15:16:40.305Z,4.93
2022-08-19T15:19:06.701Z,5.90
2022-08-19T15:21:33.271Z,6.25
2022-08-19T15:24:01.758Z,5.93
2022-08-19T15:26:32.438Z,6.63
2022-08-19T15:29:00.281Z,7.28
2022-08-19T15:31:29.116Z,5.28
2022-08-19T15:33:58.741Z,7.00
2022-08-19T15:36:26.946Z,6.07
2022-08-19T15:38:53.785Z,7.07
2022-08-19T15:41:26.886Z,6.80
2022-08-19T15:43:56.411Z,6.55
2022-08-19T15:46:26.050Z,5.65
2022-08-19T15:48:57.203Z,4.95
2022-08-19T15:51:28.307Z,5.20
2022-08-19T15:53:55.228Z,6.13
2022-08-19T15:56:25.529Z,8.18
2022-08-19T15:59:12.372Z,6.60
2022-08-19T16:01:57.640Z,6.72
2022-08-19T16:04:43.412Z,7.28
2022-08-19T16:07:10.194Z,6.82
2022-08-19T16:09:36.662Z,7.20
2022-08-19T16:12:05.771Z,7.22
2022-08-19T16:14:35.048Z,6.78
2022-08-19T16:17:01.925Z,6.80
2022-08-19T16:19:28.402Z,6.32
2022-08-19T16:21:56.996Z,6.50
2022-08-19T16:24:27.219Z,6.97
2022-08-19T16:26:54.554Z,7.03
2022-08-19T16:29:34.867Z,7.32
2022-08-19T16:32:10.183Z,9.20
2022-08-19T16:34:39.016Z,7.30
2022-08-19T16:37:05.620Z,6.40
2022-08-19T16:39:32.085Z,6.95
2022-08-19T16:41:59.254Z,7.00
2022-08-19T16:44:27.388Z,6.75
2022-08-19T16:46:59.168Z,6.40
2022-08-19T16:49:52.322Z,6.97
2022-08-19T16:52:18.321Z,7.60
2022-08-19T16:54:45.136Z,7.05
2022-08-19T16:57:12.418Z,7.38
2022-08-19T16:59:43.157Z,7.80
2022-08-19T17:02:17.659Z,9.07
2022-08-19T17:04:44.060Z,7.82
2022-08-19T17:07:10.639Z,10.73
2022-08-19T17:09:38.003Z,7.40
2022-08-19T17:12:05.189Z,7.32
2022-08-19T17:14:31.635Z,7.53
2022-08-19T17:16:58.072Z,7.57
2022-08-19T17:19:24.470Z,7.80
2022-08-19T17:21:51.183Z,7.47
2022-08-19T17:24:17.603Z,8.10
2022-08-19T17:26:44.173Z,8.63
2022-08-19T17:29:10.631Z,7.95
2022-08-19T17:31:37.085Z,7.28
2022-08-19T17:34:04.491Z,8.48
2022-08-19T17:36:32.757Z,8.68
2022-08-19T17:39:00.887Z,9.07
2022-08-19T17:41:30.426Z,8.93
2022-08-19T17:43:57.718Z,9.02
2022-08-19T17:46:24.291Z,8.57
2022-08-19T17:48:54.564Z,8.55
2022-08-19T17:51:22.739Z,7.75
2022-08-19T17:53:51.340Z,8.48
2022-08-19T17:56:18.328Z,8.35
2022-08-19T17:58:46.608Z,7.13
2022-08-19T18:01:26.101Z,6.60
2022-08-19T18:03:55.218Z,6.32
2022-08-19T18:06:21.717Z,5.53
2022-08-19T18:08:49.053Z,5.85
2022-08-19T18:11:16.643Z,5.70
2022-08-19T18:13:43.345Z,5.50
2022-08-19T18:16:11.219Z,6.60
2022-08-19T18:18:41.993Z,7.10
2022-08-19T18:21:09.731Z,5.65
2022-08-19T18:23:44.378Z,5.00
2022-08-19T18:26:12.244Z,4.80
2022-08-19T18:28:39.749Z,5.47
2022-08-19T18:31:16.680Z,5.15
2022-08-19T18:33:44.888Z,4.70
2022-08-19T18:36:12.264Z,4.97
2022-08-19T18:38:57.223Z,4.80
2022-08-19T18:41:43.174Z,4.43
2022-08-19T18:44:28.412Z,4.50
2022-08-19T18:47:13.918Z,3.88
2022-08-19T18:49:40.462Z,4.13
2022-08-19T18:52:07.390Z,3.95
2022-08-19T18:54:34.295Z,4.13
2022-08-19T18:57:00.851Z,4.70
2022-08-19T18:59:29.964Z,4.18
2022-08-19T19:01:58.993Z,4.07
2022-08-19T19:04:33.889Z,4.80
2022-08-19T19:07:00.358Z,4.97
2022-08-19T19:09:27.533Z,5.05
2022-08-19T19:12:00.038Z,5.07
2022-08-19T19:14:48.762Z,6.25
2022-08-19T19:17:16.460Z,5.10
2022-08-19T19:19:43.816Z,5.82
2022-08-19T19:22:16.900Z,5.30
2022-08-19T19:27:15.366Z,5.15
2022-08-19T19:29:42.435Z,5.97
2022-08-19T19:32:16.393Z,5.70
2022-08-19T19:34:43.146Z,5.63
2022-08-19T19:37:09.625Z,5.72
2022-08-19T19:39:46.138Z,6.05
2022-08-19T19:42:20.506Z,6.18
2022-08-19T19:44:50.102Z,5.85
2022-08-19T19:47:18.742Z,6.07
2022-08-19T19:50:10.681Z,6.43
2022-08-19T19:52:33.370Z,6.15
2022-08-19T19:55:00.096Z,5.90
2022-08-19T19:57:26.756Z,6.25
2022-08-19T19:59:54.091Z,5.93
2022-08-19T20:02:21.825Z,6.25
2022-08-19T20:04:48.783Z,7.18
2022-08-19T20:07:15.274Z,6.25
2022-08-19T20:09:58.809Z,6.45
2022-08-19T20:12:26.405Z,7.32
2022-08-19T20:14:52.895Z,7.20
2022-08-19T20:17:20.798Z,7.45
2022-08-19T20:19:47.638Z,8.07
2022-08-19T20:22:14.351Z,7.88
2022-08-19T20:24:42.361Z,7.30
2022-08-19T20:27:09.129Z,7.43
2022-08-19T20:29:41.446Z,7.57
2022-08-19T20:32:09.804Z,7.05
2022-08-19T20:34:37.056Z,8.55
2022-08-19T20:37:03.486Z,7.88
2022-08-19T20:39:29.899Z,7.45
2022-08-19T20:41:56.588Z,7.35
2022-08-19T20:44:25.198Z,7.05
2022-08-19T20:46:54.721Z,6.88
2022-08-19T20:49:27.221Z,7.15
2022-08-19T20:51:55.313Z,7.00
2022-08-19T20:54:21.803Z,6.53
2022-08-19T20:56:48.448Z,6.47
2022-08-19T20:59:14.980Z,6.45
2022-08-19T21:01:41.400Z,6.97
2022-08-19T21:04:07.884Z,7.55
2022-08-19T21:06:34.322Z,7.57
2022-08-19T21:09:00.848Z,7.95
2022-08-19T21:11:27.287Z,8.73
2022-08-19T21:13:53.730Z,9.02
2022-08-19T21:16:20.185Z,8.98
2022-08-19T21:18:46.633Z,8.88
2022-08-19T21:21:13.095Z,8.88
2022-08-19T21:23:39.674Z,9.30
2022-08-19T21:26:06.167Z,9.52
2022-08-19T21:28:35.899Z,8.95
2022-08-19T21:31:05.174Z,9.15
2022-08-19T21:33:32.175Z,9.48
2022-08-19T21:35:59.926Z,9.70
2022-08-19T21:38:26.875Z,10.05
2022-08-19T21:40:53.353Z,12.10
2022-08-19T21:43:19.922Z,10.02
2022-08-19T21:45:47.485Z,10.23
2022-08-19T21:48:14.733Z,10.65
2022-08-19T21:50:43.078Z,11.48
2022-08-19T21:53:17.416Z,11.52
2022-08-19T21:55:46.074Z,10.20
2022-08-19T21:58:19.958Z,11.00
2022-08-19T22:00:55.441Z,11.15
2022-08-19T22:03:21.980Z,10.73
2022-08-19T22:05:48.429Z,11.20
2022-08-19T22:08:15.190Z,12.13
2022-08-19T22:10:41.603Z,11.95
2022-08-19T22:13:09.401Z,9.50
2022-08-19T22:15:35.899Z,7.50
2022-08-19T22:18:02.628Z,6.38
2022-08-19T22:20:31.776Z,5.28
2022-08-19T22:23:04.552Z,4.72
2022-08-19T22:25:34.029Z,4.47
2022-08-19T22:28:02.808Z,4.15
2022-08-19T22:30:33.112Z,5.47
2022-08-19T22:33:02.848Z,6.93
2022-08-19T22:35:31.804Z,8.68
2022-08-19T22:37:59.003Z,7.28
2022-08-19T22:40:27.408Z,6.55
2022-08-19T22:43:02.136Z,8.60
2022-08-19T22:45:29.866Z,8.15
2022-08-19T22:47:57.156Z,8.02
2022-08-19T22:50:25.286Z,8.45
2022-08-19T22:52:59.906Z,8.18
2022-08-19T22:55:27.564Z,7.50
2022-08-19T22:57:54.453Z,7.60
2022-08-19T23:00:23.311Z,9.85
2022-08-19T23:02:51.549Z,9.32
2022-08-19T23:05:22.016Z,9.80
2022-08-19T23:07:52.671Z,9.60
2022-08-19T23:10:27.107Z,9.20
2022-08-19T23:12:59.184Z,8.65
2022-08-19T23:15:29.414Z,9.40
2022-08-19T23:17:58.853Z,8.32
2022-08-19T23:20:29.491Z,7.85
2022-08-19T23:22:56.814Z,8.43
2022-08-19T23:25:26.709Z,8.65
2022-08-19T23:28:12.304Z,8.52
2022-08-19T23:30:43.639Z,8.80
2022-08-19T23:33:46.477Z,9.23
2022-08-19T23:36:18.597Z,8.38
2022-08-19T23:38:47.028Z,8.50
2022-08-19T23:41:17.732Z,7.78
2022-08-19T23:43:44.887Z,8.90
2022-08-19T23:46:13.962Z,8.27
2022-08-19T23:48:53.971Z,8.98
2022-08-19T23:51:20.693Z,8.07
2022-08-19T23:53:47.145Z,7.80
2022-08-19T23:56:13.600Z,9.05
2022-08-19T23:58:40.198Z,8.25
